createdAt,value
2023-01-17T00:01:34.244Z,3.22
2023-01-17T00:04:20.148Z,4.10
2023-01-17T00:07:05.594Z,3.25
2023-01-17T00:09:50.762Z,2.33
2023-01-17T00:12:17.532Z,2.90
2023-01-17T00:17:10.882Z,2.65
2023-01-17T00:19:56.149Z,3.83
2023-01-17T00:22:45.272Z,3.25
2023-01-17T00:25:36.345Z,2.65
2023-01-17T00:30:29.820Z,4.72
2023-01-17T00:32:56.546Z,4.50
2023-01-17T00:38:04.524Z,5.40
2023-01-17T00:40:32.648Z,6.43
2023-01-17T00:43:17.878Z,3.78
2023-01-17T00:46:04.107Z,2.55
2023-01-17T00:48:49.945Z,1.85
2023-01-17T00:51:35.801Z,3.13
2023-01-17T00:54:21.528Z,3.75
2023-01-17T00:57:08.495Z,3.25
2023-01-17T00:59:53.772Z,2.25
2023-01-17T01:02:39.209Z,3.47
2023-01-17T01:05:24.648Z,2.70
2023-01-17T01:08:10.038Z,3.33
2023-01-17T01:10:55.228Z,2.63
2023-01-17T01:13:45.144Z,1.85
2023-01-17T01:16:31.584Z,3.85
2023-01-17T01:19:17.276Z,2.90
2023-01-17T01:22:03.284Z,2.83
2023-01-17T01:24:49.083Z,3.17
2023-01-17T01:27:34.413Z,4.00
2023-01-17T01:30:19.619Z,3.28
2023-01-17T01:33:04.993Z,2.90
2023-01-17T01:35:31.918Z,2.28
2023-01-17T01:40:25.286Z,4.55
2023-01-17T01:45:23.769Z,2.85
2023-01-17T01:47:54.141Z,4.10
2023-01-17T01:50:21.742Z,4.22
2023-01-17T01:52:55.184Z,5.03
2023-01-17T01:55:27.930Z,3.03
2023-01-17T01:57:58.935Z,1.67
2023-01-17T02:00:36.421Z,2.42
2023-01-17T02:03:08.941Z,2.47
2023-01-17T02:05:36.117Z,2.67
2023-01-17T02:08:07.756Z,1.85
2023-01-17T02:10:37.977Z,1.15
2023-01-17T02:13:06.044Z,1.83
2023-01-17T02:15:44.559Z,3.00
2023-01-17T02:18:34.559Z,2.85
2023-01-17T02:21:30.485Z,1.75
2023-01-17T02:24:15.948Z,1.35
2023-01-17T02:26:57.878Z,1.13
2023-01-17T02:30:31.839Z,1.27
2023-01-17T02:33:16.395Z,1.00
2023-01-17T02:35:56.354Z,1.88
2023-01-17T02:39:12.057Z,1.85
2023-01-17T02:41:45.680Z,1.23
2023-01-17T02:44:16.824Z,2.03
2023-01-17T02:46:50.170Z,1.23
2023-01-17T02:49:20.746Z,0.95
2023-01-17T02:52:06.126Z,1.42
2023-01-17T02:54:54.457Z,1.45
2023-01-17T02:58:13.416Z,1.65
2023-01-17T03:01:18.777Z,1.08
2023-01-17T03:04:03.465Z,0.75
2023-01-17T03:06:34.752Z,1.17
2023-01-17T03:09:02.436Z,1.63
2023-01-17T03:11:29.019Z,3.15
2023-01-17T03:13:57.042Z,0.73
2023-01-17T03:16:26.731Z,0.85
2023-01-17T03:18:54.010Z,1.23
2023-01-17T03:21:22.103Z,0.60
2023-01-17T03:23:48.757Z,1.60
2023-01-17T03:28:43.447Z,0.98
2023-01-17T03:31:13.806Z,0.75
2023-01-17T03:33:40.585Z,1.00
2023-01-17T03:38:34.065Z,4.30
2023-01-17T03:41:00.865Z,1.27
2023-01-17T03:43:27.573Z,2.50
2023-01-17T03:48:28.355Z,3.10
2023-01-17T03:50:54.982Z,0.57
2023-01-17T03:53:21.606Z,1.73
2023-01-17T03:55:49.254Z,1.17
2023-01-17T03:58:17.398Z,3.90
2023-01-17T04:00:44.026Z,0.75
2023-01-17T04:05:37.535Z,2.67
2023-01-17T04:10:30.719Z,5.30
2023-01-17T04:12:58.117Z,0.50
2023-01-17T04:15:24.802Z,1.05
2023-01-17T04:20:38.465Z,0.85
2023-01-17T04:23:05.632Z,0.82
2023-01-17T04:25:32.528Z,0.73
2023-01-17T04:28:00.961Z,1.80
2023-01-17T04:30:28.486Z,1.38
2023-01-17T04:32:55.534Z,2.45
2023-01-17T04:35:22.970Z,1.90
2023-01-17T04:37:49.900Z,0.82
2023-01-17T04:40:17.012Z,0.60
2023-01-17T04:42:47.615Z,0.60
2023-01-17T04:45:15.125Z,0.80
2023-01-17T04:47:41.744Z,1.55
2023-01-17T04:50:09.600Z,1.17
2023-01-17T04:52:36.383Z,1.08
2023-01-17T04:57:29.864Z,0.68
2023-01-17T05:02:23.234Z,0.77
2023-01-17T05:04:49.989Z,0.52
2023-01-17T05:09:43.885Z,0.30
2023-01-17T05:12:11.411Z,0.85
2023-01-17T05:14:38.140Z,1.35
2023-01-17T05:19:33.301Z,1.33
2023-01-17T05:22:03.945Z,0.90
2023-01-17T05:24:32.280Z,0.90
2023-01-17T05:27:03.274Z,0.57
2023-01-17T05:29:30.748Z,0.82
2023-01-17T05:31:57.848Z,1.25
2023-01-17T05:34:25.256Z,1.75
2023-01-17T05:36:52.118Z,0.32
2023-01-17T05:39:19.170Z,0.77
2023-01-17T05:41:46.253Z,0.90
2023-01-17T05:44:13.202Z,4.72
2023-01-17T05:46:39.972Z,0.93
2023-01-17T05:49:06.677Z,0.50
2023-01-17T05:51:38.140Z,2.53
2023-01-17T05:54:06.450Z,1.50
2023-01-17T05:56:42.049Z,1.08
2023-01-17T05:59:09.501Z,0.70
2023-01-17T06:01:40.255Z,0.80
2023-01-17T06:04:07.281Z,0.50
2023-01-17T06:06:34.070Z,0.65
2023-01-17T06:09:00.742Z,2.35
2023-01-17T06:11:27.601Z,1.52
2023-01-17T06:16:21.631Z,2.13
2023-01-17T06:21:15.527Z,2.10
2023-01-17T06:23:42.205Z,1.42
2023-01-17T06:26:09.737Z,1.15
2023-01-17T06:28:36.424Z,1.65
2023-01-17T06:31:08.656Z,1.13
2023-01-17T06:33:35.784Z,1.20
2023-01-17T06:36:03.120Z,1.45
2023-01-17T06:38:30.106Z,2.58
2023-01-17T06:41:00.319Z,1.42
2023-01-17T06:43:28.686Z,1.60
2023-01-17T06:45:55.790Z,2.70
2023-01-17T06:48:22.568Z,1.23
2023-01-17T06:50:49.928Z,1.02
2023-01-17T06:53:16.710Z,1.77
2023-01-17T06:55:43.662Z,1.40
2023-01-17T06:58:10.622Z,1.17
2023-01-17T07:00:40.349Z,1.65
2023-01-17T07:03:15.278Z,1.48
2023-01-17T07:05:42.340Z,1.50
2023-01-17T07:08:09.017Z,1.63
2023-01-17T07:10:35.759Z,1.65
2023-01-17T07:13:02.448Z,1.30
2023-01-17T07:15:31.638Z,1.85
2023-01-17T07:18:01.076Z,1.52
2023-01-17T07:20:27.811Z,2.50
2023-01-17T07:25:21.167Z,0.77
2023-01-17T07:27:48.042Z,1.42
2023-01-17T07:30:14.852Z,0.80
2023-01-17T07:35:08.422Z,1.40
2023-01-17T07:37:35.104Z,2.70
2023-01-17T07:40:03.063Z,1.70
2023-01-17T07:42:29.783Z,2.13
2023-01-17T07:44:56.451Z,2.70
2023-01-17T07:47:24.871Z,0.85
2023-01-17T07:49:51.525Z,1.08
2023-01-17T07:52:18.467Z,1.65
2023-01-17T07:54:45.216Z,1.88
2023-01-17T07:59:38.979Z,2.00
2023-01-17T08:02:06.315Z,1.23
2023-01-17T08:04:35.318Z,0.93
2023-01-17T08:07:02.327Z,1.38
2023-01-17T08:09:29.113Z,2.20
2023-01-17T08:14:22.558Z,3.75
2023-01-17T08:19:17.082Z,1.15
2023-01-17T08:21:44.136Z,1.35
2023-01-17T08:26:41.084Z,1.15
2023-01-17T08:29:07.979Z,0.90
2023-01-17T08:31:35.416Z,1.52
2023-01-17T08:34:02.149Z,1.60
2023-01-17T08:36:31.184Z,1.58
2023-01-17T08:38:58.310Z,1.70
2023-01-17T08:41:27.841Z,1.20
2023-01-17T08:43:54.562Z,2.60
2023-01-17T08:46:21.231Z,2.65
2023-01-17T08:48:47.873Z,1.30
2023-01-17T08:51:14.509Z,1.25
2023-01-17T08:53:42.207Z,2.95
2023-01-17T08:56:09.643Z,1.40
2023-01-17T08:58:36.460Z,1.58
2023-01-17T09:01:05.027Z,1.30
2023-01-17T09:03:35.030Z,1.30
2023-01-17T09:06:10.730Z,1.27
2023-01-17T09:08:38.401Z,1.60
2023-01-17T09:11:09.925Z,2.38
2023-01-17T09:13:37.783Z,1.05
2023-01-17T09:16:05.836Z,1.83
2023-01-17T09:18:37.497Z,1.25
2023-01-17T09:21:16.749Z,1.98
2023-01-17T09:23:43.888Z,0.70
2023-01-17T09:26:20.386Z,1.73
2023-01-17T09:28:47.775Z,2.40
2023-01-17T09:31:17.218Z,1.13
2023-01-17T09:33:44.684Z,2.10
2023-01-17T09:36:14.296Z,1.30
2023-01-17T09:38:43.530Z,1.17
2023-01-17T09:41:24.087Z,1.77
2023-01-17T09:44:08.463Z,1.48
2023-01-17T09:46:42.673Z,1.92
2023-01-17T09:49:19.409Z,2.55
2023-01-17T09:51:46.315Z,1.75
2023-01-17T09:54:22.802Z,2.10
2023-01-17T09:57:21.351Z,3.13
2023-01-17T10:00:02.881Z,1.83
2023-01-17T10:02:56.790Z,2.33
2023-01-17T10:05:55.821Z,1.42
2023-01-17T10:08:58.024Z,2.50
2023-01-17T10:11:48.925Z,1.83
2023-01-17T10:17:34.997Z,1.85
2023-01-17T10:20:34.042Z,1.42
2023-01-17T10:23:22.085Z,2.05
2023-01-17T10:25:50.416Z,4.80
2023-01-17T10:28:34.840Z,1.27
2023-01-17T10:31:10.520Z,1.58
2023-01-17T10:33:57.777Z,1.70
2023-01-17T10:36:32.188Z,1.55
2023-01-17T10:39:21.052Z,1.40
2023-01-17T10:41:58.453Z,1.52
2023-01-17T10:44:50.881Z,2.33
2023-01-17T10:47:23.392Z,2.20
2023-01-17T10:49:57.579Z,1.48
2023-01-17T10:52:27.167Z,3.60
2023-01-17T10:54:58.731Z,2.22
2023-01-17T10:57:27.823Z,6.05
2023-01-17T10:59:58.606Z,2.90
2023-01-17T11:02:35.462Z,1.80
2023-01-17T11:05:12.206Z,3.55
2023-01-17T11:07:40.187Z,1.90
2023-01-17T11:10:39.975Z,3.88
2023-01-17T11:13:32.124Z,0.80
2023-01-17T11:16:09.953Z,1.42
2023-01-17T11:18:40.050Z,1.25
2023-01-17T11:21:12.232Z,1.80
2023-01-17T11:23:42.327Z,1.15
2023-01-17T11:26:12.020Z,1.88
2023-01-17T11:28:41.518Z,0.88
2023-01-17T11:31:25.175Z,2.90
2023-01-17T11:34:10.022Z,3.47
2023-01-17T11:39:23.781Z,2.25
2023-01-17T11:41:52.267Z,2.22
2023-01-17T11:44:26.191Z,1.38
2023-01-17T11:47:11.050Z,1.80
2023-01-17T11:49:41.316Z,1.20
2023-01-17T11:52:23.418Z,2.13
2023-01-17T11:54:52.783Z,1.00
2023-01-17T11:57:25.574Z,1.13
2023-01-17T12:00:38.795Z,2.33
2023-01-17T12:03:24.106Z,1.73
2023-01-17T12:06:25.081Z,2.95
2023-01-17T12:09:07.736Z,2.03
2023-01-17T12:12:22.875Z,0.98
2023-01-17T12:15:19.571Z,1.95
2023-01-17T12:18:06.137Z,2.20
2023-01-17T12:20:40.753Z,1.38
2023-01-17T12:23:20.684Z,1.83
2023-01-17T12:26:12.773Z,2.95
2023-01-17T12:28:51.330Z,1.73
2023-01-17T12:31:27.870Z,1.10
2023-01-17T12:34:12.275Z,2.28
2023-01-17T12:36:56.911Z,1.17
2023-01-17T12:39:30.798Z,1.45
2023-01-17T12:42:07.255Z,1.33
2023-01-17T12:44:50.107Z,3.38
2023-01-17T12:47:19.813Z,2.22
2023-01-17T12:49:52.553Z,1.30
2023-01-17T12:52:53.351Z,1.42
2023-01-17T12:55:45.592Z,1.48
2023-01-17T12:58:20.044Z,1.42
2023-01-17T13:00:51.399Z,1.10
2023-01-17T13:03:27.369Z,1.30
2023-01-17T13:05:56.693Z,3.30
2023-01-17T13:08:48.174Z,1.52
2023-01-17T13:11:30.739Z,1.55
2023-01-17T13:13:59.821Z,2.65
2023-01-17T13:17:20.875Z,1.85
2023-01-17T13:22:24.279Z,0.68
2023-01-17T13:25:23.522Z,1.17
2023-01-17T13:28:22.404Z,1.83
2023-01-17T13:30:57.750Z,1.50
2023-01-17T13:33:31.107Z,1.40
2023-01-17T13:36:35.421Z,3.83
2023-01-17T13:39:13.113Z,5.43
2023-01-17T13:41:52.752Z,1.95
2023-01-17T13:44:22.903Z,1.73
2023-01-17T13:47:04.166Z,2.33
2023-01-17T13:49:34.162Z,2.45
2023-01-17T13:52:02.953Z,4.22
2023-01-17T13:54:37.931Z,2.13
2023-01-17T13:57:23.547Z,1.90
2023-01-17T13:59:50.859Z,2.45
2023-01-17T14:02:32.553Z,2.50
2023-01-17T14:05:18.062Z,2.13
2023-01-17T14:07:49.678Z,3.22
2023-01-17T14:10:24.558Z,2.85
2023-01-17T14:12:51.234Z,3.05
2023-01-17T14:18:09.197Z,1.38
2023-01-17T14:20:43.233Z,3.58
2023-01-17T14:23:25.891Z,2.78
2023-01-17T14:25:55.232Z,3.55
2023-01-17T14:28:40.507Z,2.30
2023-01-17T14:31:26.938Z,3.55
2023-01-17T14:34:11.899Z,1.75
2023-01-17T14:36:39.164Z,2.08
2023-01-17T14:39:22.112Z,3.45
2023-01-17T14:41:53.376Z,2.75
2023-01-17T14:44:25.046Z,4.18
2023-01-17T14:49:45.026Z,3.70
2023-01-17T14:52:31.537Z,6.20
2023-01-17T14:55:21.471Z,3.60
2023-01-17T14:58:42.973Z,5.28
2023-01-17T15:01:26.577Z,8.15
2023-01-17T15:04:51.270Z,7.78
2023-01-17T15:07:54.610Z,9.95
2023-01-17T15:10:31.041Z,6.30
2023-01-17T15:13:10.495Z,6.32
2023-01-17T15:18:19.986Z,3.60
2023-01-17T15:21:05.064Z,4.55
2023-01-17T15:24:26.901Z,4.45
2023-01-17T15:27:25.842Z,4.13
2023-01-17T15:30:10.109Z,4.53
2023-01-17T15:32:41.314Z,2.50
2023-01-17T15:35:18.118Z,3.92
2023-01-17T15:37:45.216Z,3.05
2023-01-17T15:40:24.611Z,3.47
2023-01-17T15:43:01.820Z,3.17
2023-01-17T15:45:50.870Z,5.25
2023-01-17T15:48:41.679Z,5.60
2023-01-17T15:51:12.803Z,5.07
2023-01-17T15:53:44.293Z,4.80
2023-01-17T15:56:20.408Z,6.07
2023-01-17T15:59:10.383Z,9.95
2023-01-17T16:01:37.619Z,5.97
2023-01-17T16:04:35.080Z,4.53
2023-01-17T16:07:23.426Z,5.22
2023-01-17T16:09:50.148Z,5.60
2023-01-17T16:12:22.678Z,3.75
2023-01-17T16:15:10.481Z,3.92
2023-01-17T16:17:45.679Z,5.78
2023-01-17T16:24:21.598Z,4.90
2023-01-17T16:26:54.673Z,7.50
2023-01-17T16:29:31.282Z,8.93
2023-01-17T16:32:08.821Z,7.88
2023-01-17T16:34:36.230Z,7.82
2023-01-17T16:37:04.284Z,9.07
2023-01-17T16:39:31.793Z,9.82
2023-01-17T16:42:02.706Z,8.85
2023-01-17T16:44:31.485Z,10.15
2023-01-17T16:47:02.737Z,9.90
2023-01-17T16:49:34.968Z,14.43
2023-01-17T16:52:06.227Z,9.13
2023-01-17T16:54:45.281Z,11.15
2023-01-17T16:57:24.612Z,8.15
2023-01-17T17:00:42.899Z,7.00
2023-01-17T17:03:59.326Z,7.90
2023-01-17T17:09:47.814Z,11.23
2023-01-17T17:13:09.566Z,13.13
2023-01-17T17:15:46.357Z,14.05
2023-01-17T17:18:25.017Z,17.75
2023-01-17T17:20:53.060Z,13.70
2023-01-17T17:23:20.314Z,11.10
2023-01-17T17:25:55.638Z,13.85
2023-01-17T17:28:32.098Z,13.88
2023-01-17T17:31:08.001Z,16.48
2023-01-17T17:33:38.691Z,12.20
2023-01-17T17:36:12.211Z,14.52
2023-01-17T17:38:51.192Z,12.95
2023-01-17T17:41:20.489Z,10.80
2023-01-17T17:43:47.686Z,9.48
2023-01-17T17:46:21.772Z,13.23
2023-01-17T17:48:50.180Z,11.32
2023-01-17T17:51:24.675Z,10.25
2023-01-17T17:53:53.143Z,7.07
2023-01-17T17:56:20.600Z,8.20
2023-01-17T17:58:56.891Z,8.77
2023-01-17T18:01:24.429Z,8.70
2023-01-17T18:03:52.721Z,8.25
2023-01-17T18:06:19.787Z,9.23
2023-01-17T18:08:52.186Z,10.50
2023-01-17T18:11:21.587Z,9.63
2023-01-17T18:13:51.154Z,8.50
2023-01-17T18:16:21.479Z,10.63
2023-01-17T18:18:51.409Z,11.73
2023-01-17T18:21:25.439Z,11.27
2023-01-17T18:23:55.585Z,13.98
2023-01-17T18:26:26.262Z,12.88
2023-01-17T18:28:54.611Z,10.50
2023-01-17T18:31:24.254Z,10.15
2023-01-17T18:33:52.056Z,10.13
2023-01-17T18:36:18.678Z,9.68
2023-01-17T18:38:52.134Z,10.18
2023-01-17T18:41:29.249Z,12.13
2023-01-17T18:43:56.612Z,11.32
2023-01-17T18:46:25.931Z,8.55
2023-01-17T18:48:56.306Z,11.98
2023-01-17T18:51:23.615Z,10.50
2023-01-17T18:53:50.487Z,9.52
2023-01-17T18:58:51.415Z,13.30
2023-01-17T19:01:24.042Z,10.32
2023-01-17T19:03:54.049Z,10.30
2023-01-17T19:06:27.207Z,14.73
2023-01-17T19:08:54.589Z,8.63
2023-01-17T19:11:23.302Z,12.68
2023-01-17T19:13:50.574Z,13.00
2023-01-17T19:16:32.336Z,14.45
2023-01-17T19:19:12.970Z,15.70
2023-01-17T19:21:41.840Z,18.48
2023-01-17T19:24:13.300Z,19.73
2023-01-17T19:26:43.857Z,22.08
2023-01-17T19:29:10.732Z,21.42
2023-01-17T19:34:14.131Z,18.48
2023-01-17T19:36:41.730Z,15.00
2023-01-17T19:39:10.055Z,14.95
2023-01-17T19:41:42.456Z,15.48
2023-01-17T19:44:13.809Z,17.42
2023-01-17T19:46:46.261Z,18.30
2023-01-17T19:49:13.011Z,16.33
2023-01-17T19:51:40.667Z,21.73
2023-01-17T19:54:08.461Z,23.98
2023-01-17T19:56:35.617Z,24.95
2023-01-17T19:59:02.796Z,32.75
2023-01-17T20:01:32.945Z,24.65
2023-01-17T20:04:01.911Z,27.63
2023-01-17T20:06:34.124Z,19.30
2023-01-17T20:11:51.871Z,16.20
2023-01-17T20:14:41.007Z,18.58
2023-01-17T20:17:13.727Z,22.55
2023-01-17T20:19:41.123Z,22.20
2023-01-17T20:22:09.501Z,17.00
2023-01-17T20:24:36.916Z,16.60
2023-01-17T20:27:03.853Z,17.10
2023-01-17T20:29:36.074Z,18.30
2023-01-17T20:32:03.032Z,17.40
2023-01-17T20:37:02.254Z,17.35
2023-01-17T20:39:29.257Z,13.80
2023-01-17T20:41:57.713Z,14.93
2023-01-17T20:44:24.509Z,17.15
2023-01-17T20:49:19.396Z,15.57
2023-01-17T20:51:47.432Z,16.90
2023-01-17T20:54:16.889Z,16.75
2023-01-17T20:56:45.326Z,19.38
2023-01-17T20:59:15.029Z,18.33
2023-01-17T21:01:44.171Z,19.23
2023-01-17T21:04:12.226Z,17.33
2023-01-17T21:06:42.130Z,16.67
2023-01-17T21:09:15.259Z,19.23
2023-01-17T21:11:42.642Z,18.90
2023-01-17T21:14:10.178Z,20.20
2023-01-17T21:16:42.176Z,18.25
2023-01-17T21:19:12.149Z,17.92
2023-01-17T21:21:39.230Z,23.27
2023-01-17T21:24:06.216Z,19.17
2023-01-17T21:26:33.019Z,21.48
2023-01-17T21:29:03.683Z,21.67
2023-01-17T21:31:33.703Z,22.13
2023-01-17T21:34:04.022Z,19.80
2023-01-17T21:36:33.736Z,23.20
2023-01-17T21:39:07.008Z,22.23
2023-01-17T21:41:36.688Z,22.08
2023-01-17T21:44:23.362Z,21.38
2023-01-17T21:46:56.351Z,17.55
2023-01-17T21:49:24.105Z,19.70
2023-01-17T21:51:54.305Z,23.88
2023-01-17T21:54:51.931Z,18.30
2023-01-17T21:57:40.772Z,23.48
2023-01-17T22:00:16.689Z,26.38
2023-01-17T22:02:45.535Z,22.48
2023-01-17T22:05:17.069Z,22.45
2023-01-17T22:08:04.513Z,26.77
2023-01-17T22:10:31.758Z,20.23
2023-01-17T22:12:58.615Z,22.65
2023-01-17T22:17:52.508Z,22.55
2023-01-17T22:20:22.421Z,19.27
2023-01-17T22:22:49.295Z,25.33
2023-01-17T22:25:18.459Z,21.35
2023-01-17T22:27:46.179Z,24.85
2023-01-17T22:30:19.557Z,26.10
2023-01-17T22:32:46.428Z,22.27
2023-01-17T22:37:41.409Z,22.08
2023-01-17T22:40:10.205Z,22.63
2023-01-17T22:42:37.795Z,23.95
2023-01-17T22:45:12.988Z,21.73
2023-01-17T22:47:40.287Z,22.50
2023-01-17T22:50:09.050Z,21.77
2023-01-17T22:52:35.899Z,25.77
2023-01-17T22:57:29.426Z,19.80
2023-01-17T23:02:28.610Z,21.20
2023-01-17T23:04:58.719Z,20.58
2023-01-17T23:07:30.987Z,20.50
2023-01-17T23:09:57.735Z,20.48
2023-01-17T23:12:24.527Z,24.85
2023-01-17T23:15:09.756Z,24.38
2023-01-17T23:17:55.155Z,23.88
2023-01-17T23:20:21.851Z,21.38
2023-01-17T23:22:48.500Z,20.95
2023-01-17T23:25:15.820Z,22.00
2023-01-17T23:28:03.929Z,20.38
2023-01-17T23:30:34.846Z,22.30
2023-01-17T23:33:13.048Z,18.10
2023-01-17T23:35:42.658Z,24.00
2023-01-17T23:38:26.706Z,20.88
2023-01-17T23:41:17.385Z,18.02
2023-01-17T23:43:44.153Z,22.15
2023-01-17T23:46:12.372Z,19.58
2023-01-17T23:48:39.067Z,20.40
2023-01-17T23:51:08.635Z,21.85
2023-01-17T23:53:37.298Z,18.17
2023-01-17T23:56:06.770Z,19.98
2023-01-17T23:58:34.059Z,20.35
